Time;durP1;ratioP1;P1;durP2;ratioP2;P2;SDS_P1;SDS_P2;PMS_P1;PMS_P2;Temp;Humidity;BMP_temperature;BMP_pressure;BME280_temperature;BME280_humidity;BME280_pressure;Samples;Min_cycle;Max_cycle;Signal;HPM_P1;HPM_P2
2023/11/11 00:01:28;;;;;;;;;;;;;;;13.37;nan;100078.28;5010675;28;19917;-91
2023/11/11 00:03:53;;;;;;;;;;;;;;;13.34;nan;100080.75;5008298;28;19932;-91
2023/11/11 00:06:19;;;;;;;;;;;;;;;13.33;nan;100082.63;5009299;28;19918;-90
2023/11/11 00:08:44;;;;;;;;;;;;;;;13.34;nan;100083.44;5010391;28;20374;-91
2023/11/11 00:11:09;;;;;;;;;;;;;;;13.34;nan;100076.16;5013498;28;19924;-90
2023/11/11 00:13:35;;;;;;;;;;;;;;;13.33;nan;100068.38;5005466;28;20441;-90
2023/11/11 00:16:00;;;;;;;;;;;;;;;13.34;nan;100076.16;5009598;28;19979;-90
2023/11/11 00:18:26;;;;;;;;;;;;;;;13.37;nan;100067.53;5010768;28;19961;-91
2023/11/11 00:20:51;;;;;;;;;;;;;;;13.38;nan;100062.94;5023941;28;19918;-91
2023/11/11 00:23:16;;;;;;;;;;;;;;;13.36;nan;100063.22;5006977;28;19924;-90
2023/11/11 00:25:43;;;;;;;;;;;;;;;13.32;nan;100067.56;5006306;28;19940;-90
2023/11/11 00:28:10;;;;;;;;;;;;;;;13.31;nan;100065.97;5008141;28;20210;-90
2023/11/11 00:30:36;;;;;;;;;;;;;;;13.30;nan;100065.16;5008421;28;19928;-91
2023/11/11 00:33:01;;;;;;;;;;;;;;;13.30;nan;100057.09;5009731;28;19925;-90
2023/11/11 00:35:26;;;;;;;;;;;;;;;13.29;nan;100065.47;5010572;28;19936;-91
2023/11/11 00:37:52;;;;;;;;;;;;;;;13.25;nan;100059.00;5007151;28;19925;-91
2023/11/11 00:40:17;;;;;;;;;;;;;;;13.22;nan;100054.19;5006363;28;19922;-90
2023/11/11 00:42:42;;;;;;;;;;;;;;;13.18;nan;100056.66;5010107;28;19929;-90
2023/11/11 00:45:08;;;;;;;;;;;;;;;13.15;nan;100059.09;5011888;28;19917;-91
2023/11/11 00:47:33;;;;;;;;;;;;;;;13.13;nan;100054.00;5008927;28;19922;-90
2023/11/11 00:49:59;;;;;;;;;;;;;;;13.12;nan;100048.91;5009529;28;20277;-91
2023/11/11 00:52:24;;;;;;;;;;;;;;;13.11;nan;100048.09;5003721;28;19968;-91
2023/11/11 00:54:49;;;;;;;;;;;;;;;13.09;nan;100049.44;5009124;28;20008;-90
2023/11/11 00:57:14;;;;;;;;;;;;;;;13.06;nan;100056.19;5009354;28;20400;-90
2023/11/11 00:59:40;;;;;;;;;;;;;;;13.03;nan;100062.13;5011048;28;19921;-91
2023/11/11 01:02:05;;;;;;;;;;;;;;;12.99;nan;100061.88;5010303;28;19918;-90
2023/11/11 01:04:31;;;;;;;;;;;;;;;12.97;nan;100058.69;5008219;28;19924;-91
2023/11/11 01:06:56;;;;;;;;;;;;;;;12.90;nan;100049.31;5002676;28;19975;-91
2023/11/11 01:09:21;;;;;;;;;;;;;;;12.89;nan;100040.44;5011755;28;19929;-91
2023/11/11 01:11:47;;;;;;;;;;;;;;;12.89;nan;100040.44;5007305;28;19925;-91
2023/11/11 01:14:12;;;;;;;;;;;;;;;12.87;nan;100047.97;4999696;28;20020;-90
2023/11/11 01:16:38;;;;;;;;;;;;;;;12.80;nan;100041.34;5005385;28;19925;-90
2023/11/11 01:19:03;;;;;;;;;;;;;;;12.76;nan;100041.09;5011881;28;20300;-91
2023/11/11 01:21:29;;;;;;;;;;;;;;;12.75;nan;100044.88;5007601;28;19985;-90
2023/11/11 01:23:55;;;;;;;;;;;;;;;12.73;nan;100041.63;5001803;28;19930;-91
2023/11/11 01:26:20;;;;;;;;;;;;;;;12.72;nan;100045.41;5002843;28;20271;-90
2023/11/11 01:28:46;;;;;;;;;;;;;;;12.70;nan;100040.31;5007716;28;19960;-91
2023/11/11 01:31:11;;;;;;;;;;;;;;;12.69;nan;100040.59;5003935;28;19971;-90
2023/11/11 01:33:36;;;;;;;;;;;;;;;12.65;nan;100040.34;5004493;28;20488;-91
2023/11/11 01:36:04;;;;;;;;;;;;;;;12.64;nan;100043.31;5010528;28;19985;-91
2023/11/11 01:38:30;;;;;;;;;;;;;;;12.61;nan;100033.13;5004984;28;20068;-90
2023/11/11 01:40:55;;;;;;;;;;;;;;;12.59;nan;100035.28;5003730;28;19972;-91
2023/11/11 01:43:21;;;;;;;;;;;;;;;12.56;nan;100031.25;5007113;28;19925;-90
2023/11/11 01:45:46;;;;;;;;;;;;;;;12.53;nan;100036.38;5006891;28;20341;-90
2023/11/11 01:48:13;;;;;;;;;;;;;;;12.52;nan;100040.16;5008956;28;19917;-91
2023/11/11 01:50:40;;;;;;;;;;;;;;;12.48;nan;100036.41;5005755;28;19924;-91
2023/11/11 01:53:06;;;;;;;;;;;;;;;12.46;nan;100030.53;5006441;28;19921;-91
2023/11/11 01:55:34;;;;;;;;;;;;;;;12.44;nan;100027.31;5007759;28;19928;-90
2023/11/11 01:58:01;;;;;;;;;;;;;;;12.42;nan;100026.78;5011253;28;20000;-89
2023/11/11 02:00:28;;;;;;;;;;;;;;;12.38;nan;100030.00;5004960;28;19921;-91
2023/11/11 02:02:53;;;;;;;;;;;;;;;12.35;nan;100030.56;5005491;28;19922;-90
2023/11/11 02:05:20;;;;;;;;;;;;;;;12.32;nan;100025.75;5005733;28;19971;-90
2023/11/11 02:07:45;;;;;;;;;;;;;;;12.30;nan;100016.38;5003758;28;19963;-91
2023/11/11 02:10:13;;;;;;;;;;;;;;;12.28;nan;100021.22;5006917;28;20042;-90
2023/11/11 02:12:38;;;;;;;;;;;;;;;12.24;nan;100017.50;5006620;28;19918;-90
2023/11/11 02:15:04;;;;;;;;;;;;;;;12.19;nan;100020.19;5008208;28;20396;-90
2023/11/11 02:17:29;;;;;;;;;;;;;;;12.13;nan;100011.34;5006204;28;19918;-90
2023/11/11 02:19:54;;;;;;;;;;;;;;;12.10;nan;100006.53;5006480;28;19918;-91
2023/11/11 02:22:20;;;;;;;;;;;;;;;12.07;nan;100007.91;5008052;28;19917;-90
2023/11/11 02:24:47;;;;;;;;;;;;;;;12.07;nan;100007.09;5006251;28;19924;-91
2023/11/11 02:27:13;;;;;;;;;;;;;;;12.07;nan;100009.78;5004306;28;20598;-90
2023/11/11 02:29:45;;;;;;;;;;;;;;;12.04;nan;100021.06;5005527;28;19929;-90
2023/11/11 02:32:10;;;;;;;;;;;;;;;12.04;nan;100021.06;5007281;28;19917;-90
2023/11/11 02:34:36;;;;;;;;;;;;;;;12.03;nan;100022.97;5000484;28;19924;-90
2023/11/11 02:37:01;;;;;;;;;;;;;;;12.04;nan;100029.94;5009534;28;19971;-90
2023/11/11 02:39:26;;;;;;;;;;;;;;;12.03;nan;100019.47;5002500;28;19925;-90
2023/11/11 02:41:52;;;;;;;;;;;;;;;12.02;nan;100024.00;5006454;28;19972;-90
2023/11/11 02:44:17;;;;;;;;;;;;;;;11.97;nan;100024.03;5005187;28;20219;-90
2023/11/11 02:46:43;;;;;;;;;;;;;;;11.97;nan;100025.91;5003573;28;20015;-91
2023/11/11 02:49:08;;;;;;;;;;;;;;;11.96;nan;100022.44;5010498;28;19921;-90
2023/11/11 02:51:34;;;;;;;;;;;;;;;11.94;nan;100018.41;5008420;28;19996;-91
2023/11/11 02:54:00;;;;;;;;;;;;;;;11.90;nan;100018.16;5003541;28;19972;-90
2023/11/11 02:56:25;;;;;;;;;;;;;;;11.88;nan;100020.31;5003493;28;20337;-90
2023/11/11 02:58:50;;;;;;;;;;;;;;;11.87;nan;100015.25;5005423;28;19921;-90
2023/11/11 03:01:16;;;;;;;;;;;;;;;11.88;nan;100014.16;5010140;28;19971;-90
2023/11/11 03:03:41;;;;;;;;;;;;;;;11.84;nan;100016.56;5009039;28;19921;-91
2023/11/11 03:06:06;;;;;;;;;;;;;;;11.80;nan;100013.63;5009447;28;20076;-90
2023/11/11 03:08:36;;;;;;;;;;;;;;;11.81;nan;100014.44;5006018;28;20748;-90
2023/11/11 03:11:02;;;;;;;;;;;;;;;11.80;nan;100008.25;5010964;28;19985;-91
2023/11/11 03:13:27;;;;;;;;;;;;;;;11.83;nan;100006.09;5009131;28;19973;-91
2023/11/11 03:15:52;;;;;;;;;;;;;;;11.81;nan;100003.69;5014102;28;19964;-91
2023/11/11 03:18:17;;;;;;;;;;;;;;;11.80;nan;100013.63;5006522;28;20067;-92
2023/11/11 03:20:43;;;;;;;;;;;;;;;11.79;nan;100005.84;5006842;28;20451;-90
2023/11/11 03:23:08;;;;;;;;;;;;;;;11.79;nan;100001.28;5008771;28;19925;-91
2023/11/11 03:25:34;;;;;;;;;;;;;;;11.79;nan;100001.28;5012432;28;20397;-90
2023/11/11 03:27:59;;;;;;;;;;;;;;;11.82;nan;99996.44;5010074;28;20478;-90
2023/11/11 03:30:24;;;;;;;;;;;;;;;11.83;nan;99998.84;5007875;28;20099;-90
2023/11/11 03:32:49;;;;;;;;;;;;;;;11.85;nan;99998.56;5010749;28;19929;-90
2023/11/11 03:35:15;;;;;;;;;;;;;;;11.90;nan;99998.56;5009208;28;20333;-90
2023/11/11 03:37:40;;;;;;;;;;;;;;;11.94;nan;100002.31;5011340;28;19962;-90
2023/11/11 03:40:06;;;;;;;;;;;;;;;11.97;nan;100001.75;5012165;28;19921;-90
2023/11/11 03:42:32;;;;;;;;;;;;;;;12.01;nan;99997.44;5009046;28;20028;-90
2023/11/11 03:44:57;;;;;;;;;;;;;;;12.07;nan;99999.03;5011074;28;19925;-90
2023/11/11 03:47:22;;;;;;;;;;;;;;;12.12;nan;99998.22;5004130;28;19918;-90
2023/11/11 03:49:48;;;;;;;;;;;;;;;12.13;nan;99999.81;5010450;28;20285;-90
2023/11/11 03:52:13;;;;;;;;;;;;;;;12.13;nan;100005.19;5010442;28;20003;-90
2023/11/11 03:54:38;;;;;;;;;;;;;;;12.15;nan;100003.03;5008942;28;19918;-90
2023/11/11 03:57:04;;;;;;;;;;;;;;;12.14;nan;100007.59;5007659;28;20143;-90
2023/11/11 03:59:31;;;;;;;;;;;;;;;12.13;nan;100007.88;5010123;28;19967;-91
2023/11/11 04:01:57;;;;;;;;;;;;;;;12.15;nan;100005.69;5007732;28;19918;-90
2023/11/11 04:04:22;;;;;;;;;;;;;;;12.16;nan;100004.63;5008963;28;19920;-90
2023/11/11 04:06:47;;;;;;;;;;;;;;;12.16;nan;100004.63;5009265;28;19984;-91
2023/11/11 04:09:13;;;;;;;;;;;;;;;12.17;nan;100012.41;5010434;28;19918;-90
2023/11/11 04:11:38;;;;;;;;;;;;;;;12.20;nan;99997.63;5004752;28;20292;-90
2023/11/11 04:14:03;;;;;;;;;;;;;;;12.21;nan;100008.09;5011334;28;19913;-91
2023/11/11 04:16:29;;;;;;;;;;;;;;;12.19;nan;100004.88;5011566;28;19921;-91
2023/11/11 04:18:55;;;;;;;;;;;;;;;12.21;nan;100005.41;5009449;28;19917;-91
2023/11/11 04:21:21;;;;;;;;;;;;;;;12.21;nan;99999.22;5010716;28;19948;-90
2023/11/11 04:23:46;;;;;;;;;;;;;;;12.21;nan;100010.78;5008347;28;19924;-90
2023/11/11 04:26:12;;;;;;;;;;;;;;;12.19;nan;100014.81;5005629;28;19918;-90
2023/11/11 04:28:42;;;;;;;;;;;;;;;12.15;nan;100009.19;5004905;28;19953;-91
2023/11/11 04:31:08;;;;;;;;;;;;;;;12.16;nan;100020.72;5007713;28;19917;-91
2023/11/11 04:33:33;;;;;;;;;;;;;;;12.15;nan;100014.56;5012659;28;19921;-90
2023/11/11 04:36:00;;;;;;;;;;;;;;;12.12;nan;100012.44;5009698;28;19927;-90
2023/11/11 04:38:26;;;;;;;;;;;;;;;12.09;nan;100011.09;5008481;28;19917;-91
2023/11/11 04:40:51;;;;;;;;;;;;;;;12.06;nan;100017.03;5009873;28;19917;-90
2023/11/11 04:43:17;;;;;;;;;;;;;;;12.04;nan;100011.13;5007551;28;19929;-91
2023/11/11 04:45:42;;;;;;;;;;;;;;;12.02;nan;100020.53;5005627;28;19918;-91
2023/11/11 04:48:09;;;;;;;;;;;;;;;12.01;nan;100019.72;5005651;28;19928;-91
2023/11/11 04:50:34;;;;;;;;;;;;;;;12.01;nan;100016.22;5006967;28;19971;-91
2023/11/11 04:53:00;;;;;;;;;;;;;;;11.99;nan;100021.06;5008350;28;20337;-91
2023/11/11 04:55:25;;;;;;;;;;;;;;;11.95;nan;100017.34;5010449;28;19921;-91
2023/11/11 04:57:50;;;;;;;;;;;;;;;11.92;nan;100024.06;5007683;28;19994;-90
2023/11/11 05:00:17;;;;;;;;;;;;;;;11.89;nan;100029.97;5008010;28;19917;-90
2023/11/11 05:02:43;;;;;;;;;;;;;;;11.87;nan;100031.34;5005049;28;19940;-90
2023/11/11 05:05:10;;;;;;;;;;;;;;;11.84;nan;100029.97;5006584;28;19987;-91
2023/11/11 05:07:37;;;;;;;;;;;;;;;11.83;nan;100027.56;5006448;28;19921;-91
2023/11/11 05:10:04;;;;;;;;;;;;;;;11.80;nan;100020.88;4997728;28;20073;-90
2023/11/11 05:12:33;;;;;;;;;;;;;;;11.78;nan;100025.69;5002558;28;19953;-90
2023/11/11 05:14:58;;;;;;;;;;;;;;;11.75;nan;100027.03;5010197;28;19971;-90
2023/11/11 05:17:25;;;;;;;;;;;;;;;11.72;nan;100032.97;5004970;28;19918;-90
2023/11/11 05:19:53;;;;;;;;;;;;;;;11.73;nan;100036.44;5003384;28;20381;-90
2023/11/11 05:22:18;;;;;;;;;;;;;;;11.68;nan;100029.22;5007499;28;20396;-90
2023/11/11 05:24:44;;;;;;;;;;;;;;;11.67;nan;100035.66;5005328;28;19925;-90
2023/11/11 05:27:10;;;;;;;;;;;;;;;11.63;nan;100031.91;5009825;28;19925;-91
2023/11/11 05:29:36;;;;;;;;;;;;;;;11.57;nan;100035.69;5005063;28;19927;-89
2023/11/11 05:32:03;;;;;;;;;;;;;;;11.55;nan;100034.34;5007008;28;20032;-90
2023/11/11 05:34:28;;;;;;;;;;;;;;;11.53;nan;100039.19;5003693;28;19918;-90
2023/11/11 05:36:55;;;;;;;;;;;;;;;11.52;nan;100034.88;5007791;28;19936;-90
2023/11/11 05:39:20;;;;;;;;;;;;;;;11.50;nan;100035.16;5008188;28;19917;-90
2023/11/11 05:41:45;;;;;;;;;;;;;;;11.48;nan;100043.47;5006750;28;20274;-90
2023/11/11 05:44:11;;;;;;;;;;;;;;;11.48;nan;100054.19;5007447;28;19921;-90
2023/11/11 05:46:37;;;;;;;;;;;;;;;11.50;nan;100048.56;5007069;28;19918;-90
2023/11/11 05:49:03;;;;;;;;;;;;;;;11.51;nan;100052.88;5012193;28;19925;-90
2023/11/11 05:51:30;;;;;;;;;;;;;;;11.53;nan;100049.91;5008915;28;20347;-91
2023/11/11 05:53:55;;;;;;;;;;;;;;;11.56;nan;100060.09;5004802;28;19964;-90
2023/11/11 05:56:21;;;;;;;;;;;;;;;11.58;nan;100057.94;5006617;28;19922;-90
2023/11/11 05:58:47;;;;;;;;;;;;;;;11.61;nan;100057.41;5008231;28;19925;-90
2023/11/11 06:01:12;;;;;;;;;;;;;;;11.63;nan;100061.41;5008126;28;19960;-90
2023/11/11 06:03:38;;;;;;;;;;;;;;;11.67;nan;100062.50;5009550;28;19967;-90
2023/11/11 06:06:04;;;;;;;;;;;;;;;11.68;nan;100066.78;5006474;28;19964;-90
2023/11/11 06:08:29;;;;;;;;;;;;;;;11.68;nan;100068.66;5009453;28;20129;-90
2023/11/11 06:10:54;;;;;;;;;;;;;;;11.67;nan;100070.53;5007268;28;19968;-90
2023/11/11 06:13:20;;;;;;;;;;;;;;;11.69;nan;100068.41;5008987;28;20005;-90
2023/11/11 06:15:45;;;;;;;;;;;;;;;11.71;nan;100068.91;5009181;28;20418;-91
2023/11/11 06:18:10;;;;;;;;;;;;;;;11.71;nan;100066.25;5007201;28;19921;-90
2023/11/11 06:20:36;;;;;;;;;;;;;;;11.74;nan;100064.88;5004623;28;19914;-90
2023/11/11 06:23:01;;;;;;;;;;;;;;;11.77;nan;100056.28;5004785;28;19996;-90
2023/11/11 06:25:27;;;;;;;;;;;;;;;11.77;nan;100064.34;5010174;28;20358;-91
2023/11/11 06:27:53;;;;;;;;;;;;;;;11.78;nan;100064.09;5009219;28;19917;-90
2023/11/11 06:30:20;;;;;;;;;;;;;;;11.76;nan;100060.84;5008163;28;19928;-90
2023/11/11 06:32:45;;;;;;;;;;;;;;;11.77;nan;100067.81;5003177;28;19917;-90
2023/11/11 06:35:12;;;;;;;;;;;;;;;11.77;nan;100059.78;5008681;28;19936;-90
2023/11/11 06:37:38;;;;;;;;;;;;;;;11.78;nan;100065.94;5010699;28;19944;-90
2023/11/11 06:40:03;;;;;;;;;;;;;;;11.78;nan;100069.47;5005297;28;19921;-90
2023/11/11 06:42:29;;;;;;;;;;;;;;;11.76;nan;100066.22;5009602;28;20020;-90
2023/11/11 06:44:56;;;;;;;;;;;;;;;11.76;nan;100066.22;4998707;28;19992;-90
2023/11/11 06:47:21;;;;;;;;;;;;;;;11.75;nan;100069.19;5003745;28;19924;-89
2023/11/11 06:49:47;;;;;;;;;;;;;;;11.74;nan;100067.56;5005988;28;19921;-90
2023/11/11 06:52:12;;;;;;;;;;;;;;;11.71;nan;100071.59;5007575;28;20492;-90
2023/11/11 06:54:37;;;;;;;;;;;;;;;11.69;nan;100065.72;5005387;28;19987;-91
2023/11/11 06:57:05;;;;;;;;;;;;;;;11.66;nan;100071.59;5007123;28;20563;-90
2023/11/11 06:59:31;;;;;;;;;;;;;;;11.63;nan;100074.81;5003616;28;20063;-90
2023/11/11 07:01:56;;;;;;;;;;;;;;;11.60;nan;100066.53;5006025;28;19948;-90
2023/11/11 07:04:22;;;;;;;;;;;;;;;11.57;nan;100067.88;5008551;28;19924;-90
2023/11/11 07:06:47;;;;;;;;;;;;;;;11.56;nan;100066.25;5004939;28;20050;-90
2023/11/11 07:09:12;;;;;;;;;;;;;;;11.54;nan;100060.38;5004787;28;19925;-89
2023/11/11 07:11:38;;;;;;;;;;;;;;;11.53;nan;100066.81;5005325;28;19921;-91
2023/11/11 07:14:06;;;;;;;;;;;;;;;11.50;nan;100067.34;5007989;28;19921;-90
2023/11/11 07:16:32;;;;;;;;;;;;;;;11.47;nan;100066.00;5007532;28;19921;-91
2023/11/11 07:18:58;;;;;;;;;;;;;;;11.48;nan;100069.47;5007705;28;19918;-90
2023/11/11 07:21:24;;;;;;;;;;;;;;;11.47;nan;100065.19;5003652;28;19944;-90
2023/11/11 07:23:50;;;;;;;;;;;;;;;11.44;nan;100063.06;5004220;28;19931;-90
2023/11/11 07:26:16;;;;;;;;;;;;;;;11.44;nan;100084.50;5008449;28;19984;-89
2023/11/11 07:28:42;;;;;;;;;;;;;;;11.40;nan;100075.41;5009013;28;19913;-90
2023/11/11 07:31:08;;;;;;;;;;;;;;;11.39;nan;100089.88;5007000;28;19979;-90
2023/11/11 07:33:34;;;;;;;;;;;;;;;11.40;nan;100084.25;5007539;28;20526;-90
2023/11/11 07:36:00;;;;;;;;;;;;;;;11.41;nan;100099.28;5005298;28;19926;-90
2023/11/11 07:38:25;;;;;;;;;;;;;;;11.41;nan;100095.78;5002519;28;20071;-91
2023/11/11 07:40:51;;;;;;;;;;;;;;;11.41;nan;100093.09;5000438;28;20402;-90
2023/11/11 07:43:16;;;;;;;;;;;;;;;11.42;nan;100094.72;5006988;28;20393;-91
2023/11/11 07:45:42;;;;;;;;;;;;;;;11.40;nan;100099.53;5007945;28;19925;-91
2023/11/11 07:48:07;;;;;;;;;;;;;;;11.41;nan;100101.16;5012061;28;19932;-92
2023/11/11 07:50:33;;;;;;;;;;;;;;;11.41;nan;100101.16;5012764;28;20017;-90
2023/11/11 07:52:58;;;;;;;;;;;;;;;11.42;nan;100103.56;5010054;28;19918;-91
2023/11/11 07:55:23;;;;;;;;;;;;;;;11.49;nan;100097.94;5010164;28;20287;-91
2023/11/11 07:57:49;;;;;;;;;;;;;;;11.54;nan;100095.25;5009892;28;19941;-91
2023/11/11 08:00:18;;;;;;;;;;;;;;;11.59;nan;100100.59;5011987;28;20290;-91
2023/11/11 08:02:43;;;;;;;;;;;;;;;11.67;nan;100094.69;5007876;28;19917;-90
2023/11/11 08:05:09;;;;;;;;;;;;;;;11.74;nan;100095.22;5013047;28;20296;-91
2023/11/11 08:07:35;;;;;;;;;;;;;;;11.83;nan;100095.47;5008184;28;19924;-91
2023/11/11 08:10:00;;;;;;;;;;;;;;;11.92;nan;100090.38;5008148;28;19918;-91
2023/11/11 08:12:25;;;;;;;;;;;;;;;12.02;nan;100095.69;5012903;28;20423;-91
2023/11/11 08:14:51;;;;;;;;;;;;;;;12.10;nan;100097.84;5007057;28;19913;-91
2023/11/11 08:17:16;;;;;;;;;;;;;;;12.11;nan;100104.81;5012493;28;19921;-91
2023/11/11 08:19:42;;;;;;;;;;;;;;;12.14;nan;100108.81;5005737;28;20005;-91
2023/11/11 08:22:07;;;;;;;;;;;;;;;12.15;nan;100123.84;5007070;28;20119;-91
2023/11/11 08:24:33;;;;;;;;;;;;;;;12.15;nan;100127.34;5007829;28;19921;-91
2023/11/11 08:26:58;;;;;;;;;;;;;;;12.19;nan;100135.66;5008415;28;20589;-91
2023/11/11 08:29:24;;;;;;;;;;;;;;;12.22;nan;100132.44;5007063;28;19925;-91
2023/11/11 08:31:50;;;;;;;;;;;;;;;12.19;nan;100133.78;5003506;28;19929;-89
2023/11/11 08:34:15;;;;;;;;;;;;;;;12.13;nan;100129.50;5003654;28;19919;-91
2023/11/11 08:36:40;;;;;;;;;;;;;;;12.12;nan;100130.59;5009450;28;20012;-92
2023/11/11 08:39:07;;;;;;;;;;;;;;;12.17;nan;100124.38;5008056;28;20493;-91
2023/11/11 08:41:32;;;;;;;;;;;;;;;12.24;nan;100135.66;5010685;28;20393;-91
2023/11/11 08:43:58;;;;;;;;;;;;;;;12.29;nan;100136.44;5007636;28;20009;-91
2023/11/11 08:46:23;;;;;;;;;;;;;;;12.34;nan;100136.41;5007665;28;19921;-91
2023/11/11 08:48:48;;;;;;;;;;;;;;;12.38;nan;100139.34;5004448;28;20037;-87
2023/11/11 08:51:14;;;;;;;;;;;;;;;12.44;nan;100138.28;5004343;28;20259;-90
2023/11/11 08:53:39;;;;;;;;;;;;;;;12.50;nan;100139.84;5001430;28;20019;-92
2023/11/11 08:56:05;;;;;;;;;;;;;;;12.58;nan;100141.97;5003987;28;19928;-91
2023/11/11 08:58:30;;;;;;;;;;;;;;;12.61;nan;100149.50;5002136;28;20388;-92
2023/11/11 09:00:56;;;;;;;;;;;;;;;12.67;nan;100151.06;5005805;28;20050;-88
2023/11/11 09:03:22;;;;;;;;;;;;;;;12.76;nan;100147.81;5010396;28;19925;-92
2023/11/11 09:05:47;;;;;;;;;;;;;;;12.84;nan;100145.34;4998812;28;19928;-85
2023/11/11 09:08:12;;;;;;;;;;;;;;;12.96;nan;100148.50;5003796;28;19917;-86
2023/11/11 09:10:37;;;;;;;;;;;;;;;13.05;nan;100145.22;5002003;28;19928;-87
2023/11/11 09:13:03;;;;;;;;;;;;;;;13.14;nan;100140.84;5005082;28;20060;-88
2023/11/11 09:15:29;;;;;;;;;;;;;;;13.23;nan;100144.56;5004473;28;20448;-87
2023/11/11 09:17:54;;;;;;;;;;;;;;;13.34;nan;100146.13;5008036;28;19921;-87
2023/11/11 09:20:21;;;;;;;;;;;;;;;13.42;nan;100136.63;5005624;28;19918;-88
2023/11/11 09:22:46;;;;;;;;;;;;;;;13.45;nan;100138.75;5003806;28;19921;-92
2023/11/11 09:25:14;;;;;;;;;;;;;;;13.52;nan;100128.50;5003496;28;19918;-90
2023/11/11 09:27:41;;;;;;;;;;;;;;;13.63;nan;100134.56;5006313;28;19956;-91
2023/11/11 09:30:06;;;;;;;;;;;;;;;13.70;nan;100135.06;5004161;28;20453;-91
2023/11/11 09:32:32;;;;;;;;;;;;;;;13.77;nan;100133.63;5002651;28;19992;-92
2023/11/11 09:34:57;;;;;;;;;;;;;;;13.88;nan;100139.72;5005295;28;20013;-94
2023/11/11 09:37:22;;;;;;;;;;;;;;;13.96;nan;100136.41;5005452;28;19925;-92
2023/11/11 09:39:49;;;;;;;;;;;;;;;14.01;nan;100140.97;5004841;28;19932;-88
2023/11/11 09:42:14;;;;;;;;;;;;;;;14.06;nan;100132.81;5005214;28;20365;-88
2023/11/11 09:44:40;;;;;;;;;;;;;;;14.10;nan;100125.75;5001989;28;19926;-87
2023/11/11 09:47:06;;;;;;;;;;;;;;;14.17;nan;100135.09;5007275;28;20507;-88
2023/11/11 09:49:32;;;;;;;;;;;;;;;14.27;nan;100131.50;5002658;28;19959;-89
2023/11/11 09:51:59;;;;;;;;;;;;;;;14.42;nan;100135.91;5002718;28;20008;-87
2023/11/11 09:54:25;;;;;;;;;;;;;;;14.63;nan;100136.47;5006499;28;19917;-88
2023/11/11 09:56:51;;;;;;;;;;;;;;;14.80;nan;100137.59;5009639;28;19979;-91
2023/11/11 09:59:18;;;;;;;;;;;;;;;14.89;nan;100134.22;5010003;28;20291;-87
2023/11/11 10:01:46;;;;;;;;;;;;;;;14.93;nan;100129.88;5004390;28;19924;-89
2023/11/11 10:04:12;;;;;;;;;;;;;;;14.97;nan;100129.00;5006355;28;20386;-90
2023/11/11 10:06:38;;;;;;;;;;;;;;;15.03;nan;100130.50;5010231;28;19925;-90
2023/11/11 10:09:08;;;;;;;;;;;;;;;15.10;nan;100122.06;5007590;28;19925;-88
2023/11/11 10:11:35;;;;;;;;;;;;;;;15.17;nan;100124.38;5004016;28;19925;-86
2023/11/11 10:14:00;;;;;;;;;;;;;;;15.26;nan;100119.91;5008245;28;19917;-86
2023/11/11 10:16:26;;;;;;;;;;;;;;;15.32;nan;100124.97;5004948;28;19922;-92
2023/11/11 10:18:52;;;;;;;;;;;;;;;15.40;nan;100126.97;5001115;28;19944;-86
2023/11/11 10:21:20;;;;;;;;;;;;;;;15.48;nan;100125.50;4996424;28;19922;-89
2023/11/11 10:23:47;;;;;;;;;;;;;;;15.56;nan;100132.13;4997568;28;19917;-89
2023/11/11 10:26:13;;;;;;;;;;;;;;;15.63;nan;100129.88;4997667;28;19921;-85
2023/11/11 10:28:39;;;;;;;;;;;;;;;15.69;nan;100131.41;5011378;28;19975;-88
2023/11/11 10:31:08;;;;;;;;;;;;;;;15.73;nan;100129.69;5000881;28;20320;-88
2023/11/11 10:33:34;;;;;;;;;;;;;;;15.76;nan;100129.09;5000077;28;19921;-85
2023/11/11 10:36:00;;;;;;;;;;;;;;;15.77;nan;100133.41;4997080;28;19995;-85
2023/11/11 10:38:25;;;;;;;;;;;;;;;15.80;nan;100132.84;4997587;28;20317;-85
2023/11/11 10:40:50;;;;;;;;;;;;;;;15.87;nan;100132.44;4994866;28;19966;-85
2023/11/11 10:43:16;;;;;;;;;;;;;;;15.95;nan;100131.72;4996769;28;20324;-85
2023/11/11 10:45:41;;;;;;;;;;;;;;;16.06;nan;100137.75;4997153;28;20016;-86
2023/11/11 10:48:07;;;;;;;;;;;;;;;16.12;nan;100133.84;5008242;28;19969;-87
2023/11/11 10:50:33;;;;;;;;;;;;;;;16.13;nan;100132.75;5003320;28;19929;-86
2023/11/11 10:52:59;;;;;;;;;;;;;;;16.14;nan;100128.94;5002745;28;19922;-86
2023/11/11 10:55:26;;;;;;;;;;;;;;;16.16;nan;100130.25;5003743;28;19932;-87
2023/11/11 10:57:51;;;;;;;;;;;;;;;16.22;nan;100129.06;5004060;28;20484;-87
2023/11/11 11:00:19;;;;;;;;;;;;;;;16.25;nan;100133.84;5003063;28;19917;-86
2023/11/11 11:02:47;;;;;;;;;;;;;;;16.28;nan;100127.03;5001545;28;19922;-86
2023/11/11 11:05:14;;;;;;;;;;;;;;;16.31;nan;100123.72;5010682;28;19918;-90
2023/11/11 11:07:43;;;;;;;;;;;;;;;16.34;nan;100125.88;5004650;28;19956;-86
2023/11/11 11:10:14;;;;;;;;;;;;;;;16.39;nan;100125.75;5001422;28;20020;-87
2023/11/11 11:12:39;;;;;;;;;;;;;;;16.46;nan;100123.44;4996992;28;20418;-87
2023/11/11 11:15:06;;;;;;;;;;;;;;;16.52;nan;100127.66;5002649;28;19922;-89
2023/11/11 11:17:35;;;;;;;;;;;;;;;16.57;nan;100124.81;4998759;28;19937;-88
2023/11/11 11:20:04;;;;;;;;;;;;;;;16.63;nan;100128.22;5003925;28;20400;-87
2023/11/11 11:22:39;;;;;;;;;;;;;;;16.71;nan;100121.34;5006041;28;20074;-89
2023/11/11 11:25:23;;;;;;;;;;;;;;;16.78;nan;100116.31;5019922;28;19922;-88
2023/11/11 11:28:09;;;;;;;;;;;;;;;16.81;nan;100118.41;5004856;28;19917;-87
2023/11/11 11:30:35;;;;;;;;;;;;;;;16.88;nan;100121.50;5009472;28;19925;-88
2023/11/11 11:33:00;;;;;;;;;;;;;;;16.91;nan;100113.56;5001985;28;20424;-85
2023/11/11 11:35:27;;;;;;;;;;;;;;;16.95;nan;100123.78;5010301;28;19999;-89
2023/11/11 11:37:53;;;;;;;;;;;;;;;16.99;nan;100130.97;5008892;28;19917;-89
2023/11/11 11:40:19;;;;;;;;;;;;;;;17.02;nan;100122.22;5008346;28;19932;-91
2023/11/11 11:42:47;;;;;;;;;;;;;;;17.05;nan;100123.53;5007308;28;19933;-91
2023/11/11 11:45:12;;;;;;;;;;;;;;;17.05;nan;100124.31;5004949;28;19925;-84
2023/11/11 11:47:38;;;;;;;;;;;;;;;17.10;nan;100120.72;5000629;28;19925;-84
2023/11/11 11:50:03;;;;;;;;;;;;;;;17.08;nan;100123.75;5006654;28;19940;-93
2023/11/11 11:52:29;;;;;;;;;;;;;;;17.07;nan;100115.94;5012679;28;20016;-91
2023/11/11 11:54:55;;;;;;;;;;;;;;;17.07;nan;100122.13;5013169;28;19992;-90
2023/11/11 11:57:21;;;;;;;;;;;;;;;17.13;nan;100118.19;5006682;28;19929;-91
2023/11/11 12:00:01;;;;;;;;;;;;;;;17.20;nan;100123.97;5011847;28;20016;-91
2023/11/11 12:02:26;;;;;;;;;;;;;;;17.21;nan;100127.47;5005016;28;20643;-87
2023/11/11 12:04:52;;;;;;;;;;;;;;;17.23;nan;100125.25;5008807;28;19976;-90
2023/11/11 12:07:17;;;;;;;;;;;;;;;17.27;nan;100122.75;5008398;28;20496;-92
2023/11/11 12:09:42;;;;;;;;;;;;;;;17.29;nan;100128.66;5004559;28;20396;-92
2023/11/11 12:12:09;;;;;;;;;;;;;;;17.30;nan;100125.66;5009360;28;20305;-91
2023/11/11 12:14:34;;;;;;;;;;;;;;;17.36;nan;100126.31;4999842;28;19956;-90
2023/11/11 12:16:59;;;;;;;;;;;;;;;17.42;nan;100120.50;5005225;28;20405;-89
2023/11/11 12:19:28;;;;;;;;;;;;;;;17.42;nan;100120.50;5011640;28;19925;-94
2023/11/11 12:21:53;;;;;;;;;;;;;;;17.44;nan;100114.75;5003651;28;20631;-93
2023/11/11 12:24:25;;;;;;;;;;;;;;;17.48;nan;100119.25;5010596;28;20015;-90
2023/11/11 12:27:05;;;;;;;;;;;;;;;17.52;nan;100117.50;5009213;28;19925;-87
2023/11/11 12:29:37;;;;;;;;;;;;;;;17.56;nan;100117.69;5011680;28;19921;-90
2023/11/11 12:32:03;;;;;;;;;;;;;;;17.56;nan;100120.41;5006739;28;20644;-88
2023/11/11 12:34:29;;;;;;;;;;;;;;;17.59;nan;100117.06;5007428;28;20005;-89
2023/11/11 12:36:55;;;;;;;;;;;;;;;17.60;nan;100120.59;5009239;28;19936;-92
2023/11/11 12:39:21;;;;;;;;;;;;;;;17.59;nan;100121.69;5008597;28;19918;-86
2023/11/11 12:41:51;;;;;;;;;;;;;;;17.57;nan;100124.69;5003988;28;20020;-88
2023/11/11 12:44:17;;;;;;;;;;;;;;;17.54;nan;100128.03;5011298;28;20404;-89
2023/11/11 12:46:43;;;;;;;;;;;;;;;17.46;nan;100128.78;5039409;28;20344;-87
2023/11/11 12:49:10;;;;;;;;;;;;;;;17.41;nan;100132.41;5039278;28;19921;-85
2023/11/11 12:51:36;;;;;;;;;;;;;;;17.42;nan;100133.22;5044510;28;19952;-89